Rhodesdale, Maryland
Current Conditions -  °F | °C
As of 9:54 AM on Friday 28 Nov 2014 (Local Time) from KCGE Reporting Station
Clear Clear  
Wind Chill: 32°   Ceiling: Unl
Heat Index: 39°   Visibility: 10mi
Dew Point: 25°   Wind: 13mph
Humidity: 56%   Direction: 320°NW
Pressure: 30.28"   Gusts: 24mph
Location:  38.58°N, 75.84°W
Report Text: KCGE 281454Z AUTO 32011G21KT 10SM CLR 04/M04 A3028 RMK AO1
Loading
Personal Weather Stations






























Interactive Weather Map New forecast layout! Learn more

10-Day Weather Forecast

Advertisements
Track Severe Weather on mobile